Rio Pico, Argentina
Current Conditions -  °F | °C
As of 1:00 PM on Thursday 23 Oct 2014 (Local Time) from SCAP Reporting Station
Clear Clear  
Wind Chill: 63°   Ceiling: Unl
Heat Index: 63°   Visibility: NA
Dew Point: 36°   Wind: 8mph
Humidity: 37%   Direction: 250°WSW
Pressure: 30.33"   Gusts: NA
Location:  44.2°S, 71.35°W
Report Text: SCAP 231600Z AUTO 25007KT 190V280 //// // NSC 17/02 Q1027
Loading
Personal Weather Stations






























Interactive Weather Map
Tropical Storm Tracking
New forecast layout! Learn more

10-Day Weather Forecast

Advertisements
Track Severe Weather on mobile